createdAt,value
2017-11-17T05:10:50.857Z,73.9
2017-11-17T05:11:52.494Z,100.7
2017-11-17T05:13:44.303Z,109.0
2017-11-17T05:14:46.004Z,113.3
2017-11-17T05:16:37.879Z,113.5
2017-11-17T05:17:39.562Z,107.9
2017-11-17T05:19:31.370Z,98.8
2017-11-17T05:20:33.012Z,97.9
2017-11-17T05:22:24.833Z,95.7
2017-11-17T05:23:26.504Z,101.8
2017-11-17T05:25:18.422Z,95.9
2017-11-17T05:26:20.096Z,86.5
2017-11-17T05:28:11.954Z,86.7
2017-11-17T05:29:13.607Z,81.8
2017-11-17T05:31:05.416Z,92.3
2017-11-17T05:32:07.074Z,85.9
2017-11-17T05:33:08.731Z,85.0
2017-11-17T05:34:10.380Z,81.9
2017-11-17T05:35:12.028Z,92.0
2017-11-17T05:36:13.686Z,84.6
2017-11-17T05:37:15.330Z,84.1
2017-11-17T05:38:17.001Z,87.1
2017-11-17T05:39:18.646Z,82.3
2017-11-17T05:40:20.299Z,83.4
2017-11-17T05:41:21.990Z,78.7
2017-11-17T05:42:23.628Z,76.4
2017-11-17T05:43:25.287Z,84.9
2017-11-17T05:44:26.935Z,65.6
2017-11-17T05:45:28.582Z,68.4
2017-11-17T05:46:30.252Z,70.3
2017-11-17T05:47:31.893Z,73.5
2017-11-17T05:48:33.562Z,65.2
2017-11-17T05:49:35.223Z,73.0
2017-11-17T05:50:36.874Z,75.9
2017-11-17T05:51:38.532Z,78.1
2017-11-17T05:52:40.185Z,86.1
2017-11-17T05:53:41.942Z,89.6
2017-11-17T05:54:43.650Z,87.5
2017-11-17T05:55:45.294Z,75.6
2017-11-17T05:56:46.957Z,86.0
2017-11-17T05:57:48.624Z,98.4
2017-11-17T05:58:50.299Z,86.4
2017-11-17T05:59:51.971Z,84.2
2017-11-17T06:00:53.622Z,81.0
2017-11-17T06:01:55.271Z,82.6
2017-11-17T06:02:56.959Z,74.2
2017-11-17T06:03:58.602Z,84.6
2017-11-17T06:05:00.257Z,76.7
2017-11-17T06:06:01.908Z,84.1
2017-11-17T06:07:03.568Z,70.9
2017-11-17T06:08:05.221Z,73.3
2017-11-17T06:09:06.890Z,81.3
2017-11-17T06:10:08.523Z,91.2
2017-11-17T06:11:10.208Z,77.3
2017-11-17T06:12:11.854Z,73.1
2017-11-17T06:13:13.507Z,65.9
2017-11-17T06:14:15.222Z,62.0
2017-11-17T06:15:16.881Z,57.6
2017-11-17T06:16:18.523Z,68.1
2017-11-17T06:17:20.322Z,61.7
2017-11-17T06:18:21.969Z,72.7
2017-11-17T06:19:23.624Z,63.6
2017-11-17T06:20:25.273Z,71.6
2017-11-17T06:21:26.931Z,70.3
2017-11-17T06:22:28.581Z,64.2
2017-11-17T06:23:30.239Z,59.1
2017-11-17T06:24:31.914Z,58.5
2017-11-17T06:25:33.568Z,58.9
2017-11-17T06:26:35.230Z,68.7
2017-11-17T06:27:36.884Z,57.5
2017-11-17T06:28:38.545Z,55.0
2017-11-17T06:29:40.266Z,51.8
2017-11-17T06:30:41.979Z,50.5
2017-11-17T06:31:43.628Z,54.7
2017-11-17T06:32:45.282Z,53.4
2017-11-17T06:33:46.967Z,53.8
2017-11-17T06:34:48.620Z,50.1
2017-11-17T06:35:50.625Z,53.6
2017-11-17T06:36:52.283Z,52.0
2017-11-17T06:37:54.021Z,48.8
2017-11-17T06:38:55.732Z,48.5
2017-11-17T06:39:57.394Z,51.0
2017-11-17T06:40:59.061Z,55.8
2017-11-17T06:42:00.714Z,54.3
2017-11-17T06:43:02.371Z,55.0
2017-11-17T06:44:04.078Z,49.9
2017-11-17T06:45:05.733Z,54.7
2017-11-17T06:46:07.379Z,48.8
2017-11-17T06:47:09.034Z,51.7
2017-11-17T06:48:10.699Z,48.4
2017-11-17T06:49:12.358Z,52.2
2017-11-17T06:50:14.038Z,53.6
2017-11-17T06:51:15.731Z,54.4
2017-11-17T06:52:17.391Z,56.3
2017-11-17T06:53:19.041Z,48.4
2017-11-17T06:54:20.698Z,53.2
2017-11-17T06:55:22.355Z,51.6
2017-11-17T06:56:24.002Z,48.7
2017-11-17T06:57:25.661Z,46.7
2017-11-17T06:58:27.312Z,56.0
2017-11-17T06:59:28.965Z,54.6
2017-11-17T07:00:30.685Z,51.8
2017-11-17T07:01:32.330Z,55.5
2017-11-17T07:02:34.014Z,60.2
2017-11-17T07:03:35.668Z,48.8
2017-11-17T07:04:37.334Z,55.0
2017-11-17T07:05:39.023Z,47.3
2017-11-17T07:06:40.670Z,54.3
2017-11-17T07:07:42.330Z,47.3
2017-11-17T07:08:44.022Z,49.4
2017-11-17T07:09:45.696Z,50.9
2017-11-17T07:10:47.346Z,47.3
2017-11-17T07:11:49.033Z,48.0
2017-11-17T07:12:50.683Z,47.2
2017-11-17T07:13:52.335Z,51.3
2017-11-17T07:14:54.036Z,49.4
2017-11-17T07:15:55.693Z,54.2
2017-11-17T07:16:57.404Z,53.5
2017-11-17T07:17:59.147Z,51.4
2017-11-17T07:19:00.850Z,55.1
2017-11-17T07:20:02.550Z,52.1
2017-11-17T07:21:04.207Z,50.3
2017-11-17T07:22:05.858Z,44.9
2017-11-17T07:23:07.517Z,46.6
2017-11-17T07:24:09.221Z,49.0
2017-11-17T07:25:10.950Z,45.8
2017-11-17T07:26:12.625Z,47.2
2017-11-17T07:27:14.438Z,43.5
2017-11-17T07:28:16.094Z,46.1
2017-11-17T07:29:17.787Z,41.6
2017-11-17T07:30:19.446Z,43.7
2017-11-17T07:31:21.105Z,51.4
2017-11-17T07:32:22.866Z,50.1
2017-11-17T07:33:24.635Z,44.8
2017-11-17T07:34:26.298Z,50.7
2017-11-17T07:35:27.953Z,50.3
2017-11-17T07:36:29.609Z,47.6
2017-11-17T07:37:31.259Z,47.5
2017-11-17T07:38:32.915Z,46.8
2017-11-17T07:39:34.572Z,48.6
2017-11-17T07:40:36.229Z,42.1
2017-11-17T07:41:37.875Z,44.6
2017-11-17T07:42:39.545Z,53.0
2017-11-17T07:43:41.213Z,47.6
2017-11-17T07:44:42.868Z,45.9
2017-11-17T07:45:44.581Z,44.5
2017-11-17T07:46:46.240Z,41.9
2017-11-17T07:47:47.899Z,40.3
2017-11-17T07:48:49.743Z,38.4
2017-11-17T07:49:51.409Z,46.1
2017-11-17T07:50:53.065Z,38.8
2017-11-17T07:51:54.730Z,39.3
2017-11-17T07:52:56.456Z,49.1
2017-11-17T07:53:58.111Z,40.1
2017-11-17T07:54:59.766Z,45.6
2017-11-17T07:56:01.425Z,46.1
2017-11-17T07:57:03.483Z,43.5
2017-11-17T07:58:05.180Z,42.6
2017-11-17T07:59:06.917Z,54.4
2017-11-17T08:00:08.578Z,45.0
2017-11-17T08:01:10.229Z,50.5
2017-11-17T08:02:11.888Z,45.8
2017-11-17T08:03:13.552Z,43.0
2017-11-17T08:04:15.218Z,40.5
2017-11-17T08:05:16.868Z,50.0
2017-11-17T08:06:18.518Z,50.3
2017-11-17T08:07:20.183Z,47.2
2017-11-17T08:08:21.841Z,46.2
2017-11-17T08:09:23.517Z,53.5
2017-11-17T08:10:25.166Z,50.1
2017-11-17T08:11:26.857Z,51.1
2017-11-17T08:12:28.509Z,47.5
2017-11-17T08:13:30.170Z,51.5
2017-11-17T08:14:31.820Z,44.3
2017-11-17T08:15:33.513Z,48.6
2017-11-17T08:16:35.152Z,47.1
2017-11-17T08:17:36.812Z,46.1
2017-11-17T08:18:38.471Z,52.2
2017-11-17T08:19:40.136Z,49.7
2017-11-17T08:20:41.799Z,45.3
2017-11-17T08:21:43.454Z,49.2
2017-11-17T08:22:45.108Z,45.7
2017-11-17T08:23:46.770Z,54.1
2017-11-17T08:24:48.420Z,45.4
2017-11-17T08:25:50.074Z,46.4
2017-11-17T08:26:51.736Z,49.2
2017-11-17T08:27:53.389Z,40.5
2017-11-17T08:28:55.090Z,46.1
2017-11-17T08:29:56.750Z,41.3
2017-11-17T08:30:58.432Z,43.4
2017-11-17T08:32:00.124Z,44.7
2017-11-17T08:33:01.787Z,43.0
2017-11-17T08:34:03.452Z,45.7
2017-11-17T08:35:05.116Z,41.9
2017-11-17T08:36:06.768Z,41.8
2017-11-17T08:37:08.446Z,40.1
2017-11-17T08:38:10.100Z,45.7
2017-11-17T08:39:11.767Z,41.8
2017-11-17T08:40:13.472Z,47.3
2017-11-17T08:41:15.123Z,39.2
2017-11-17T08:42:16.779Z,42.8
2017-11-17T08:43:18.436Z,41.2
2017-11-17T08:44:20.267Z,41.1
2017-11-17T08:45:21.801Z,47.8
2017-11-17T08:46:23.460Z,42.3
2017-11-17T08:47:25.125Z,46.2
2017-11-17T08:48:26.783Z,40.2
2017-11-17T08:49:28.448Z,48.7
2017-11-17T08:50:30.118Z,49.7
2017-11-17T08:51:31.769Z,44.3
2017-11-17T08:52:33.424Z,45.5
2017-11-17T08:53:35.107Z,45.8
2017-11-17T08:54:36.754Z,44.8
2017-11-17T08:55:38.414Z,43.4
2017-11-17T08:56:40.074Z,40.8
2017-11-17T08:57:41.727Z,42.6
2017-11-17T08:58:43.422Z,43.5
2017-11-17T08:59:45.104Z,41.9
2017-11-17T09:00:46.771Z,45.1
2017-11-17T09:01:48.422Z,36.2
2017-11-17T09:02:50.084Z,38.0
2017-11-17T09:03:51.787Z,35.6
2017-11-17T09:04:53.441Z,37.1
2017-11-17T09:05:55.101Z,38.1
2017-11-17T09:06:56.791Z,37.3
2017-11-17T09:07:58.452Z,39.5
2017-11-17T09:09:00.124Z,40.3
2017-11-17T09:10:01.797Z,35.3
2017-11-17T09:11:03.464Z,37.6
2017-11-17T09:12:05.123Z,37.2
2017-11-17T09:13:06.786Z,45.0
2017-11-17T09:14:08.428Z,43.5
2017-11-17T09:15:10.110Z,45.6
2017-11-17T09:16:11.781Z,41.2
2017-11-17T09:17:13.444Z,38.1
2017-11-17T09:18:15.138Z,40.1
2017-11-17T09:19:16.874Z,37.2
2017-11-17T09:20:18.597Z,37.6
2017-11-17T09:21:20.257Z,38.5
2017-11-17T09:22:21.925Z,37.5
2017-11-17T09:23:23.600Z,38.7
2017-11-17T09:24:25.265Z,39.2
2017-11-17T09:25:26.932Z,36.2
2017-11-17T09:26:28.601Z,35.5
2017-11-17T09:27:30.260Z,38.5
2017-11-17T09:28:31.917Z,37.7
2017-11-17T09:29:33.581Z,36.9
2017-11-17T09:30:35.304Z,34.2
2017-11-17T09:31:36.950Z,32.8
2017-11-17T09:32:38.640Z,32.0
2017-11-17T09:33:40.293Z,28.5
2017-11-17T09:34:41.948Z,29.0
2017-11-17T09:35:43.634Z,32.7
2017-11-17T09:36:45.301Z,32.6
2017-11-17T09:37:46.961Z,27.6
2017-11-17T09:38:48.639Z,29.0
2017-11-17T09:39:50.309Z,35.4
2017-11-17T09:40:51.956Z,31.8
2017-11-17T09:41:53.626Z,26.1
2017-11-17T09:42:55.290Z,31.3
2017-11-17T09:43:56.949Z,26.8
2017-11-17T09:44:58.621Z,29.9
2017-11-17T09:46:00.300Z,28.9
2017-11-17T09:47:01.952Z,25.3
2017-11-17T09:48:03.616Z,26.1
2017-11-17T09:49:05.275Z,25.7
2017-11-17T09:50:06.935Z,23.4
2017-11-17T09:51:08.604Z,24.9
2017-11-17T09:52:10.262Z,25.2
2017-11-17T09:53:11.918Z,33.9
2017-11-17T09:54:13.574Z,26.5
2017-11-17T09:55:15.243Z,26.8
2017-11-17T09:56:16.901Z,31.3
2017-11-17T09:57:18.571Z,29.4
2017-11-17T09:58:20.231Z,29.9
2017-11-17T09:59:23.433Z,25.0
2017-11-17T10:00:25.097Z,22.9
2017-11-17T10:01:26.773Z,25.9
2017-11-17T10:02:28.458Z,23.8
2017-11-17T10:03:30.103Z,23.7
2017-11-17T10:04:31.780Z,20.7
2017-11-17T10:05:33.435Z,26.6
2017-11-17T10:06:35.092Z,18.9
2017-11-17T10:07:36.756Z,22.3
2017-11-17T10:08:38.420Z,22.9
2017-11-17T10:09:40.080Z,25.4
2017-11-17T10:10:41.754Z,20.6
2017-11-17T10:11:43.412Z,19.0
2017-11-17T10:12:45.073Z,24.2
2017-11-17T10:13:46.728Z,19.7
2017-11-17T10:14:48.391Z,23.7
2017-11-17T10:15:50.063Z,17.7
2017-11-17T10:16:51.723Z,20.9
2017-11-17T10:17:53.371Z,21.4
2017-11-17T10:18:55.025Z,21.5
2017-11-17T10:19:56.687Z,20.9
2017-11-17T10:20:58.347Z,19.6
2017-11-17T10:22:00.001Z,17.1
2017-11-17T10:23:01.654Z,14.1
2017-11-17T10:24:03.338Z,23.8
2017-11-17T10:25:05.004Z,17.8
2017-11-17T10:26:06.654Z,17.6
2017-11-17T10:27:08.310Z,14.0
2017-11-17T10:28:09.971Z,21.4
2017-11-17T10:29:11.688Z,17.2
2017-11-17T10:30:13.346Z,21.9
2017-11-17T10:31:15.027Z,18.1
2017-11-17T10:32:16.695Z,16.6
2017-11-17T10:33:18.359Z,19.6
2017-11-17T10:34:20.016Z,14.1
2017-11-17T10:35:21.674Z,16.4
2017-11-17T10:36:23.342Z,15.7
2017-11-17T10:37:25.020Z,14.9
2017-11-17T10:38:26.681Z,17.7
2017-11-17T10:39:28.384Z,15.4
2017-11-17T10:40:30.052Z,18.1
2017-11-17T10:41:31.716Z,18.0
2017-11-17T10:42:33.383Z,14.6
2017-11-17T10:43:35.038Z,18.8
2017-11-17T10:44:36.701Z,21.7
2017-11-17T10:45:38.418Z,13.4
2017-11-17T10:46:40.101Z,14.5
2017-11-17T10:47:41.801Z,18.5
2017-11-17T10:48:43.465Z,18.2
2017-11-17T10:49:45.121Z,14.3
2017-11-17T10:50:46.787Z,18.3
2017-11-17T10:51:48.458Z,13.7
2017-11-17T10:52:50.119Z,17.0
2017-11-17T10:53:51.792Z,15.5
2017-11-17T10:54:53.469Z,13.4
2017-11-17T10:55:55.211Z,14.2
2017-11-17T10:56:56.850Z,19.8
2017-11-17T10:57:58.503Z,16.8
2017-11-17T10:59:00.173Z,14.1
2017-11-17T11:00:01.837Z,14.5
2017-11-17T11:01:03.513Z,14.1
2017-11-17T11:02:05.178Z,13.2
2017-11-17T11:03:06.873Z,12.0
2017-11-17T11:04:08.581Z,15.4
2017-11-17T11:05:10.254Z,14.3
2017-11-17T11:06:12.100Z,13.5
2017-11-17T11:07:13.772Z,12.9
2017-11-17T11:08:15.441Z,12.5
2017-11-17T11:09:17.109Z,15.9
2017-11-17T11:10:18.780Z,14.1
2017-11-17T11:11:20.507Z,15.8
2017-11-17T11:12:22.162Z,15.7
2017-11-17T11:13:23.832Z,11.3
2017-11-17T11:14:28.311Z,13.2
2017-11-17T11:15:30.020Z,14.0
2017-11-17T11:16:31.692Z,13.8
2017-11-17T11:17:33.357Z,13.5
2017-11-17T11:18:35.026Z,16.9
2017-11-17T11:19:36.692Z,16.1
2017-11-17T11:20:38.355Z,13.4
2017-11-17T11:21:40.025Z,11.3
2017-11-17T11:22:41.683Z,14.2
2017-11-17T11:23:43.352Z,14.0
2017-11-17T11:24:45.026Z,11.4
2017-11-17T11:25:46.690Z,14.3
2017-11-17T11:26:48.354Z,12.0
2017-11-17T11:27:50.026Z,12.3
2017-11-17T11:28:51.687Z,14.3
2017-11-17T11:29:53.343Z,14.4
2017-11-17T11:30:55.016Z,12.8
2017-11-17T11:31:56.679Z,11.5
2017-11-17T11:32:58.399Z,14.3
2017-11-17T11:34:00.061Z,12.6
2017-11-17T11:35:01.734Z,15.6
2017-11-17T11:36:03.407Z,11.8
2017-11-17T11:37:05.064Z,15.1
2017-11-17T11:38:06.729Z,15.3
2017-11-17T11:39:08.395Z,17.1
2017-11-17T11:40:10.066Z,16.7
2017-11-17T11:41:11.724Z,13.0
2017-11-17T11:42:13.393Z,19.4
2017-11-17T11:43:15.123Z,18.0
2017-11-17T11:44:16.787Z,15.2
2017-11-17T11:45:18.449Z,14.8
2017-11-17T11:46:20.122Z,11.3
2017-11-17T11:47:21.788Z,11.8
2017-11-17T11:48:23.449Z,17.1
2017-11-17T11:49:25.117Z,12.0
2017-11-17T11:50:26.780Z,12.8
2017-11-17T11:51:28.455Z,16.4
2017-11-17T11:52:30.105Z,11.3
2017-11-17T11:53:31.758Z,16.9
2017-11-17T11:54:33.424Z,17.6
2017-11-17T11:55:35.083Z,12.2
2017-11-17T11:56:36.750Z,11.3
2017-11-17T11:57:38.422Z,12.8
2017-11-17T11:58:40.092Z,13.1
2017-11-17T11:59:41.749Z,13.8
2017-11-17T12:00:43.429Z,11.6
2017-11-17T12:01:45.112Z,12.6
2017-11-17T12:02:46.787Z,12.1
2017-11-17T12:03:48.494Z,14.1
2017-11-17T12:04:50.158Z,13.1
2017-11-17T12:05:51.823Z,13.3
2017-11-17T12:06:53.480Z,11.5
2017-11-17T12:07:55.141Z,12.2
2017-11-17T12:08:56.806Z,12.8
2017-11-17T12:09:58.465Z,19.6
2017-11-17T12:11:00.143Z,14.2
2017-11-17T12:12:01.852Z,15.5
2017-11-17T12:13:03.652Z,11.5
2017-11-17T12:14:05.157Z,34.2
2017-11-17T12:15:06.827Z,28.5
2017-11-17T12:16:08.692Z,12.6
2017-11-17T12:17:10.356Z,9.9
2017-11-17T12:18:12.020Z,14.2
2017-11-17T12:19:13.680Z,13.3
2017-11-17T12:20:15.344Z,12.1
2017-11-17T12:21:17.012Z,14.4
2017-11-17T12:22:18.673Z,12.6
2017-11-17T12:23:20.349Z,18.0
2017-11-17T12:24:22.048Z,11.8
2017-11-17T12:25:23.711Z,11.1
2017-11-17T12:26:25.382Z,13.0
2017-11-17T12:27:27.058Z,13.0
2017-11-17T12:28:28.762Z,16.2
2017-11-17T12:29:30.469Z,13.2
2017-11-17T12:30:32.176Z,13.4
2017-11-17T12:31:33.840Z,17.4
2017-11-17T12:32:35.497Z,17.2
2017-11-17T12:33:37.162Z,38.5
2017-11-17T12:34:39.131Z,28.6
2017-11-17T12:35:40.787Z,13.1
2017-11-17T12:36:42.487Z,13.5
2017-11-17T12:37:44.153Z,17.6
2017-11-17T12:38:45.874Z,9.6
2017-11-17T12:39:47.531Z,22.6
2017-11-17T12:40:49.199Z,21.6
2017-11-17T12:41:53.712Z,21.6
2017-11-17T12:42:55.394Z,21.2
2017-11-17T12:43:57.110Z,11.4
2017-11-17T12:44:58.786Z,17.9
2017-11-17T12:46:00.433Z,11.4
2017-11-17T12:47:02.123Z,18.0
2017-11-17T12:48:03.786Z,18.3
2017-11-17T12:49:05.474Z,12.3
2017-11-17T12:50:07.133Z,12.9
2017-11-17T12:51:08.822Z,17.3
2017-11-17T12:52:10.528Z,13.6
2017-11-17T12:53:12.198Z,10.0
2017-11-17T12:54:13.877Z,18.3
2017-11-17T12:55:15.549Z,16.9
2017-11-17T12:56:17.205Z,16.7
2017-11-17T12:57:18.876Z,16.7
2017-11-17T12:58:20.538Z,14.9
2017-11-17T12:59:22.202Z,27.7
2017-11-17T13:00:24.422Z,14.5
2017-11-17T13:01:26.095Z,11.1
2017-11-17T13:02:27.788Z,17.7
2017-11-17T13:03:29.452Z,31.8
2017-11-17T13:04:31.117Z,15.1
2017-11-17T13:05:32.767Z,12.0
2017-11-17T13:06:34.436Z,14.0
2017-11-17T13:07:36.103Z,13.6
2017-11-17T13:08:37.771Z,17.4
2017-11-17T13:09:39.431Z,25.7
2017-11-17T13:10:41.104Z,20.6
2017-11-17T13:11:42.780Z,18.1
2017-11-17T13:12:44.450Z,15.0
2017-11-17T13:13:46.121Z,14.7
2017-11-17T13:14:47.797Z,14.8
2017-11-17T13:15:49.457Z,15.7
2017-11-17T13:16:51.149Z,21.6
2017-11-17T13:17:52.811Z,12.2
2017-11-17T13:18:54.498Z,18.4
2017-11-17T13:19:56.251Z,15.2
2017-11-17T13:20:57.926Z,16.3
2017-11-17T13:21:59.597Z,18.2
2017-11-17T13:23:01.257Z,12.6
2017-11-17T13:24:02.911Z,18.4
2017-11-17T13:25:04.584Z,15.4
2017-11-17T13:26:06.246Z,13.0
2017-11-17T13:27:07.902Z,14.8
2017-11-17T13:28:09.564Z,15.6
2017-11-17T13:29:11.256Z,12.2
2017-11-17T13:30:12.914Z,14.2
2017-11-17T13:31:14.628Z,11.8
2017-11-17T13:32:16.294Z,28.9
2017-11-17T13:33:17.988Z,15.6
2017-11-17T13:34:19.652Z,15.2
2017-11-17T13:35:21.311Z,14.6
2017-11-17T13:36:22.970Z,11.6
2017-11-17T13:37:24.626Z,20.3
2017-11-17T13:38:26.302Z,19.2
2017-11-17T13:39:28.004Z,17.3
2017-11-17T13:40:29.690Z,11.0
2017-11-17T13:41:31.339Z,36.3
2017-11-17T13:42:33.002Z,34.3
2017-11-17T13:43:34.668Z,16.7
2017-11-17T13:44:36.353Z,18.0
2017-11-17T13:45:38.096Z,18.4
2017-11-17T13:46:39.779Z,35.2
2017-11-17T13:47:41.460Z,32.9
2017-11-17T13:48:43.150Z,21.4
2017-11-17T13:49:44.809Z,15.6
2017-11-17T13:50:46.485Z,14.3
2017-11-17T13:51:48.516Z,16.9
2017-11-17T13:52:50.468Z,25.6
2017-11-17T13:53:52.135Z,16.6
2017-11-17T13:54:53.799Z,19.1
2017-11-17T13:55:55.467Z,19.9
2017-11-17T13:56:57.136Z,25.8
2017-11-17T13:57:58.798Z,21.5
2017-11-17T13:59:00.460Z,17.6
2017-11-17T14:00:02.137Z,19.4
2017-11-17T14:01:03.804Z,14.6
2017-11-17T14:02:05.498Z,16.3
2017-11-17T14:03:07.197Z,19.7
2017-11-17T14:04:08.864Z,20.5
2017-11-17T14:05:10.538Z,13.3
2017-11-17T14:06:12.256Z,14.7
2017-11-17T14:07:13.987Z,17.6
2017-11-17T14:08:15.649Z,15.5
2017-11-17T14:09:17.473Z,17.5
2017-11-17T14:10:19.228Z,20.5
2017-11-17T14:11:20.903Z,18.0
2017-11-17T14:12:22.631Z,14.5
2017-11-17T14:13:24.299Z,13.2
2017-11-17T14:14:25.971Z,31.1
2017-11-17T14:15:27.624Z,20.1
2017-11-17T14:16:29.287Z,29.6
2017-11-17T14:17:30.958Z,30.2
2017-11-17T14:18:32.632Z,19.5
2017-11-17T14:19:34.300Z,14.0
2017-11-17T14:20:35.971Z,25.8
2017-11-17T14:21:37.637Z,17.8
2017-11-17T14:22:39.300Z,23.2
2017-11-17T14:23:40.967Z,19.8
2017-11-17T14:24:42.815Z,19.5
2017-11-17T14:25:44.358Z,15.9
2017-11-17T14:26:46.046Z,14.2
2017-11-17T14:27:47.684Z,17.3
2017-11-17T14:28:49.345Z,24.3
2017-11-17T14:29:51.005Z,20.5
2017-11-17T14:30:52.677Z,24.9
2017-11-17T14:31:54.545Z,20.7
2017-11-17T14:32:56.202Z,20.3
2017-11-17T14:33:58.083Z,18.7
2017-11-17T14:34:59.774Z,20.6
2017-11-17T14:36:01.580Z,29.2
2017-11-17T14:37:03.523Z,20.1
2017-11-17T14:38:05.426Z,20.9
2017-11-17T14:39:07.087Z,17.9
2017-11-17T14:40:08.740Z,20.0
2017-11-17T14:41:10.418Z,24.9
2017-11-17T14:42:12.266Z,18.7
2017-11-17T14:43:13.937Z,24.5
2017-11-17T14:44:15.585Z,20.0
2017-11-17T14:45:17.264Z,23.3
2017-11-17T14:46:19.068Z,21.1
2017-11-17T14:47:20.823Z,27.9
2017-11-17T14:48:22.883Z,30.1
2017-11-17T14:49:24.553Z,21.9
2017-11-17T14:50:26.205Z,20.5
2017-11-17T14:51:27.886Z,18.4
2017-11-17T14:52:29.755Z,21.9
2017-11-17T14:53:31.481Z,24.1
2017-11-17T14:54:33.352Z,17.4
2017-11-17T14:55:40.031Z,18.0
2017-11-17T14:56:41.699Z,27.8
2017-11-17T14:57:43.571Z,20.9
2017-11-17T14:58:45.617Z,24.4
2017-11-17T14:59:48.160Z,19.5
2017-11-17T15:00:49.859Z,37.7
2017-11-17T15:01:51.532Z,25.6
2017-11-17T15:02:53.197Z,27.0
2017-11-17T15:03:54.876Z,28.0
2017-11-17T15:04:56.585Z,27.3
2017-11-17T15:05:58.303Z,32.4
2017-11-17T15:07:00.197Z,33.0
2017-11-17T15:08:02.087Z,29.9
2017-11-17T15:09:03.852Z,31.0
2017-11-17T15:10:05.577Z,30.8
2017-11-17T15:11:07.228Z,22.5
2017-11-17T15:12:08.901Z,28.2
2017-11-17T15:13:10.547Z,30.9
2017-11-17T15:14:12.226Z,30.8
2017-11-17T15:15:13.893Z,22.5
2017-11-17T15:16:15.537Z,21.6
2017-11-17T15:17:17.210Z,19.6
2017-11-17T15:18:18.874Z,25.8
2017-11-17T15:19:20.521Z,30.8
2017-11-17T15:20:22.200Z,17.7
2017-11-17T15:21:23.868Z,24.8
2017-11-17T15:22:25.507Z,15.9
2017-11-17T15:23:27.289Z,20.1
2017-11-17T15:24:28.948Z,22.1
2017-11-17T15:25:30.597Z,20.0
2017-11-17T15:26:33.499Z,19.8
2017-11-17T15:27:35.171Z,15.0
2017-11-17T15:28:36.851Z,24.7
2017-11-17T15:29:38.510Z,19.9
2017-11-17T15:30:40.330Z,26.9
2017-11-17T15:31:42.178Z,19.8
2017-11-17T15:32:43.883Z,23.1
2017-11-17T15:33:45.559Z,17.0
2017-11-17T15:34:47.280Z,22.5
2017-11-17T15:35:48.937Z,22.8
2017-11-17T15:36:50.658Z,27.1
2017-11-17T15:37:52.313Z,26.9
2017-11-17T15:38:53.965Z,25.7
2017-11-17T15:39:55.619Z,24.4
2017-11-17T15:40:57.284Z,25.5
2017-11-17T15:41:58.934Z,34.8
2017-11-17T15:43:00.621Z,25.4
2017-11-17T15:44:02.280Z,25.3
2017-11-17T15:45:04.039Z,51.8
2017-11-17T15:46:05.678Z,62.5
2017-11-17T15:47:07.361Z,67.7
2017-11-17T15:48:09.011Z,24.3
2017-11-17T15:49:10.669Z,25.9
2017-11-17T15:50:12.322Z,38.7
2017-11-17T15:51:13.975Z,21.3
2017-11-17T15:52:15.628Z,22.6
2017-11-17T15:53:17.274Z,24.7
2017-11-17T15:54:19.494Z,37.9
2017-11-17T15:55:21.143Z,23.4
2017-11-17T15:56:23.837Z,21.0
2017-11-17T15:57:25.472Z,19.3
2017-11-17T15:58:27.230Z,20.1
2017-11-17T15:59:28.977Z,16.4
2017-11-17T16:00:30.627Z,20.5
2017-11-17T16:01:32.277Z,20.1
2017-11-17T16:02:33.928Z,20.7
2017-11-17T16:03:41.280Z,19.6
2017-11-17T16:04:42.949Z,18.5
2017-11-17T16:05:44.599Z,24.4
2017-11-17T16:06:46.275Z,26.1
2017-11-17T16:07:47.911Z,23.7
2017-11-17T16:08:49.574Z,31.1
2017-11-17T16:09:51.227Z,47.5
2017-11-17T16:10:52.867Z,43.0
2017-11-17T16:11:54.525Z,30.9
2017-11-17T16:12:56.171Z,24.6
2017-11-17T16:13:57.818Z,31.7
2017-11-17T16:14:59.457Z,27.9
2017-11-17T16:16:01.108Z,30.5
2017-11-17T16:17:02.787Z,36.1
2017-11-17T16:18:04.431Z,25.8
2017-11-17T16:19:06.273Z,35.2
2017-11-17T16:20:07.927Z,40.4
2017-11-17T16:21:09.583Z,32.7
2017-11-17T16:22:11.245Z,27.7
2017-11-17T16:23:12.898Z,28.7
2017-11-17T16:24:14.540Z,29.7
2017-11-17T16:25:16.211Z,42.0
2017-11-17T16:26:17.869Z,47.1
2017-11-17T16:27:19.619Z,36.5
2017-11-17T16:28:21.277Z,43.1
2017-11-17T16:29:22.926Z,49.6
2017-11-17T16:30:24.567Z,30.4
2017-11-17T16:31:26.304Z,28.6
2017-11-17T16:32:27.948Z,23.6
2017-11-17T16:33:29.613Z,34.3
2017-11-17T16:34:31.273Z,30.6
2017-11-17T16:35:32.906Z,29.1
2017-11-17T16:36:34.607Z,28.1
2017-11-17T16:37:36.342Z,22.2
2017-11-17T16:38:38.008Z,29.6
2017-11-17T16:39:39.652Z,28.4
2017-11-17T16:40:41.310Z,30.8
2017-11-17T16:41:42.957Z,32.1
2017-11-17T16:42:44.598Z,39.1
2017-11-17T16:43:46.242Z,31.9
2017-11-17T16:44:48.195Z,34.3
2017-11-17T16:45:49.867Z,30.0
2017-11-17T16:46:51.520Z,30.2
2017-11-17T16:47:53.170Z,30.6
2017-11-17T16:48:54.828Z,24.3
2017-11-17T16:49:56.485Z,31.5
2017-11-17T16:50:58.137Z,27.7
2017-11-17T16:51:59.809Z,34.4
2017-11-17T16:53:03.340Z,34.2
2017-11-17T16:54:04.998Z,29.8
2017-11-17T16:55:06.720Z,30.1
2017-11-17T16:56:08.403Z,31.2
2017-11-17T16:57:10.294Z,32.7
2017-11-17T16:58:11.973Z,32.6
2017-11-17T16:59:13.691Z,35.5
2017-11-17T17:00:15.337Z,38.5
2017-11-17T17:01:17.011Z,41.2
2017-11-17T17:02:18.698Z,47.9
2017-11-17T17:03:20.387Z,46.4
2017-11-17T17:04:22.102Z,51.6
2017-11-17T17:05:23.754Z,53.6
2017-11-17T17:06:25.436Z,42.6
2017-11-17T17:07:27.247Z,47.1
2017-11-17T17:08:28.907Z,48.2
2017-11-17T17:09:30.643Z,41.5
2017-11-17T17:10:32.288Z,35.2
2017-11-17T17:11:33.963Z,39.0
2017-11-17T17:12:35.680Z,41.1
2017-11-17T17:13:37.349Z,36.0
2017-11-17T17:14:39.082Z,42.2
2017-11-17T17:15:40.796Z,36.3
2017-11-17T17:16:42.462Z,35.3
2017-11-17T17:17:44.264Z,40.9
2017-11-17T17:18:45.945Z,36.5
2017-11-17T17:19:47.712Z,35.6
2017-11-17T17:20:49.373Z,32.5
2017-11-17T17:21:51.022Z,40.0
2017-11-17T17:22:52.738Z,28.0
2017-11-17T17:23:54.393Z,38.6
2017-11-17T17:24:56.042Z,34.1
2017-11-17T17:25:57.692Z,31.2
2017-11-17T17:26:59.345Z,35.9
2017-11-17T17:28:00.990Z,35.3
2017-11-17T17:29:02.636Z,31.4
2017-11-17T17:30:04.281Z,36.5
2017-11-17T17:31:05.931Z,30.1
2017-11-17T17:32:07.582Z,39.1
2017-11-17T17:33:09.257Z,39.8
2017-11-17T17:34:10.900Z,42.8
2017-11-17T17:35:12.550Z,37.8
2017-11-17T17:36:14.198Z,34.8
2017-11-17T17:37:15.859Z,39.2
2017-11-17T17:38:17.504Z,38.0
2017-11-17T17:39:19.146Z,40.3
2017-11-17T17:40:20.796Z,35.9
2017-11-17T17:41:22.456Z,38.3
2017-11-17T17:42:24.111Z,40.1
2017-11-17T17:43:25.759Z,32.8
2017-11-17T17:44:27.458Z,37.6
2017-11-17T17:45:29.109Z,32.7
2017-11-17T17:46:30.768Z,42.9
2017-11-17T17:47:32.521Z,42.8
2017-11-17T17:48:34.167Z,40.0
2017-11-17T17:49:35.896Z,41.3
2017-11-17T17:50:37.576Z,33.6
2017-11-17T17:51:39.259Z,31.3
2017-11-17T17:52:40.964Z,33.1
2017-11-17T17:53:42.640Z,42.5
2017-11-17T17:54:44.281Z,35.7
2017-11-17T17:55:45.993Z,36.3
2017-11-17T17:56:47.632Z,35.1
2017-11-17T17:57:49.354Z,38.2
2017-11-17T17:58:51.031Z,36.5
2017-11-17T17:59:52.669Z,33.8
2017-11-17T18:00:54.336Z,32.6
2017-11-17T18:01:55.990Z,30.0
2017-11-17T18:02:57.656Z,32.0
2017-11-17T18:03:59.302Z,32.3
2017-11-17T18:05:01.007Z,37.6
2017-11-17T18:06:03.204Z,27.8
2017-11-17T18:07:04.851Z,30.8
2017-11-17T18:08:06.499Z,29.0
2017-11-17T18:09:08.161Z,34.8
2017-11-17T18:10:09.801Z,21.7
2017-11-17T18:11:11.468Z,28.4
2017-11-17T18:12:13.093Z,30.5
2017-11-17T18:13:14.738Z,28.9
2017-11-17T18:14:16.392Z,31.4
2017-11-17T18:15:18.057Z,33.8
2017-11-17T18:16:19.706Z,34.2
2017-11-17T18:17:21.367Z,37.8
2017-11-17T18:18:23.012Z,32.9
2017-11-17T18:19:24.677Z,31.9
2017-11-17T18:20:26.376Z,30.1
2017-11-17T18:21:28.009Z,31.0
2017-11-17T18:22:29.776Z,34.1
2017-11-17T18:23:31.494Z,36.7
2017-11-17T18:24:33.360Z,37.6
2017-11-17T18:25:35.114Z,36.1
2017-11-17T18:26:36.719Z,30.2
2017-11-17T18:27:38.401Z,29.0
2017-11-17T18:28:40.086Z,32.4
2017-11-17T18:29:41.812Z,27.5
2017-11-17T18:30:43.686Z,26.7
2017-11-17T18:31:45.554Z,29.8
2017-11-17T18:32:47.383Z,24.9
2017-11-17T18:33:48.929Z,27.9
2017-11-17T18:34:50.672Z,30.8
2017-11-17T18:35:52.330Z,33.0
2017-11-17T18:36:54.045Z,24.5
2017-11-17T18:37:55.707Z,26.5
2017-11-17T18:38:57.408Z,25.5
2017-11-17T18:39:59.216Z,29.5
2017-11-17T18:41:01.013Z,23.4
2017-11-17T18:42:02.689Z,23.2
2017-11-17T18:43:04.423Z,32.3
2017-11-17T18:44:06.082Z,26.9
2017-11-17T18:45:07.839Z,34.3
2017-11-17T18:46:09.588Z,29.1
2017-11-17T18:47:11.260Z,26.2
2017-11-17T18:48:13.083Z,33.6
2017-11-17T18:49:14.809Z,31.0
2017-11-17T18:50:16.868Z,30.7
2017-11-17T18:51:18.506Z,35.7
2017-11-17T18:52:20.161Z,34.1
2017-11-17T18:53:21.842Z,39.7
2017-11-17T18:54:23.658Z,39.7
2017-11-17T18:55:25.259Z,43.7
2017-11-17T18:56:27.206Z,32.8
2017-11-17T18:57:28.945Z,39.5